Latest Weather Observations for Albury

IDN60801

Issued at 4:35 pm EST Wednesday 3 September 2014 (issued every 30 minutes, with the page automatically refreshed every 10 minutes)

About weather observations | Map of weather stations | Latest weather observations for NSW | Other Formats
Station Details ID: 072160 Name: ALBURY AIRPORT AWS Lat: -36.07 Lon: 146.95 Height: 163.5 m
Data from the previous 72 hours. | See also: Recent months at Albury
Date/Time
EST
Temp
°C
App
Temp
°C
Dew
Point
Rel
Hum
%
Delta-T
°C
Wind Press
QNH
hPa
Press
MSL
hPa
Rain
since 9 am
mm
Dir
 
Spd
km/h
Gust
km/h
Spd
kts
Gust
kts
03/04:30pm 14.4 9.5 4.1 50 4.8 WNW 19 22 10 12 1017.7 1017.7 0.0
03/04:00pm 14.7 10.6 4.4 50 4.8 WNW 15 24 8 13 1017.5 1017.5 0.0
03/03:30pm 14.9 11.1 4.0 48 5.1 W 13 19 7 10 1017.5 1017.5 0.0
03/03:00pm 15.2 11.5 4.3 48 5.1 W 13 19 7 10 1017.4 1017.4 0.0
03/02:30pm 14.9 11.9 4.3 49 4.9 SW 9 20 5 11 1017.4 1017.4 0.0
03/02:00pm 14.4 11.3 3.8 49 4.9 S 9 13 5 7 1017.6 1017.6 0.0
03/01:30pm 14.0 10.7 4.3 52 4.5 SSW 11 17 6 9 1017.9 1018.0 0.0
03/01:00pm 13.4 10.2 2.9 49 4.7 S 9 17 5 9 1018.1 1018.2 0.0
03/12:30pm 13.3 10.7 3.4 51 4.5 S 6 11 3 6 1018.6 1018.7 0.0
03/12:00pm 12.3 9.4 1.6 48 4.6 SW 6 9 3 5 1019.1 1019.2 0.0
03/11:30am 12.1 9.1 2.3 51 4.3 S 7 11 4 6 1019.6 1019.7 0.0
03/11:00am 11.9 8.8 3.7 57 3.7 SE 9 13 5 7 1020.0 1020.1 0.0
03/10:30am 10.6 7.8 2.2 56 3.6 S 6 11 3 6 1020.5 1020.6 0.0
03/10:00am 10.4 8.2 3.4 62 3.1 E 4 7 2 4 1020.7 1020.8 0.0
03/09:30am 8.3 5.4 1.7 63 2.7 SSE 6 9 3 5 1020.9 1021.0 0.0
03/09:00am 7.7 5.0 2.8 71 2.1 ESE 6 9 3 5 1021.2 1021.3 0.6
03/08:30am 6.7 5.1 2.4 74 1.8 CALM 0 0 0 0 1021.1 1021.2 0.6
03/08:00am 3.7 1.9 1.4 85 0.9 CALM 0 6 0 3 1020.8 1020.9 0.6
03/07:30am 2.3 -0.3 0.8 90 0.6 ESE 4 7 2 4 1020.6 1020.7 0.6
03/07:00am 0.8 -1.2 0.1 95 0.3 CALM 0 0 0 0 1020.5 1020.6 0.6
03/06:30am -0.3 -2.5 -1.3 93 0.3 CALM 0 0 0 0 1020.5 1020.6 0.6
03/06:00am 0.1 -3.2 -1.0 92 0.4 ENE 6 9 3 5 1020.3 1020.4 0.6
03/05:30am 0.4 -2.8 -0.6 93 0.4 E 6 7 3 4 1020.2 - 0.6
03/05:00am 0.4 -3.4 -0.4 94 0.3 E 9 13 5 7 1019.9 1020.0 0.6
03/04:30am 0.3 -2.9 -0.7 93 0.4 E 6 7 3 4 1019.6 - 0.6
03/04:00am 0.6 -2.6 -0.5 92 0.4 NNE 6 9 3 5 1019.5 1019.6 0.6
03/03:30am 1.3 -0.6 0.3 93 0.4 CALM 0 0 0 0 1019.3 - 0.6
03/03:00am 1.0 -1.4 -0.1 92 0.4 E 2 9 1 5 1019.4 1019.5 0.6
03/02:30am 1.7 -1.5 0.5 92 0.4 NE 7 9 4 5 1019.6 - 0.6
03/02:00am 2.4 -0.2 1.1 91 0.5 NNE 4 6 2 3 1019.7 1019.8 0.6
03/01:30am 1.6 -1.1 0.1 90 0.6 NW 4 9 2 5 1019.9 - 0.6
03/01:00am 3.6 1.5 1.8 88 0.7 W 2 6 1 3 1019.8 1019.9 0.6
03/12:30am 4.3 1.4 1.3 81 1.2 S 6 9 3 5 1019.8 - 0.6
03/12:00am 3.3 -0.2 1.3 87 0.8 SW 9 13 5 7 1019.8 1019.9 0.6
 
Date/Time
EST
Temp
°C
App
Temp
°C
Dew
Point
Rel
Hum
%
Delta-T
°C
Wind Press
QNH
hPa
Press
MSL
hPa
Rain
since 9 am
mm
Dir
 
Spd
km/h
Gust
km/h
Spd
kts
Gust
kts
02/11:30pm 4.2 2.4 1.2 81 1.2 CALM 0 0 0 0 1019.8 - 0.6
02/11:00pm 5.6 2.6 2.3 79 1.3 WSW 7 9 4 5 1019.7 1019.8 0.6
02/10:30pm 4.4 1.6 1.8 83 1.0 N 6 7 3 4 1019.6 - 0.6
02/10:00pm 5.2 2.7 1.3 76 1.5 WSW 4 7 2 4 1019.5 1019.6 0.6
02/09:30pm 5.9 4.2 1.6 74 1.7 CALM 0 0 0 0 1019.3 - 0.6
02/09:00pm 6.8 2.7 2.3 73 1.9 W 13 17 7 9 1019.1 1019.2 0.6
02/08:30pm 8.2 4.4 2.0 65 2.6 W 11 15 6 8 1018.7 - 0.6
02/08:00pm 10.1 4.8 2.0 57 3.4 SW 19 26 10 14 1018.3 1018.4 0.6
02/07:30pm 8.8 4.6 4.0 72 2.1 WSW 15 22 8 12 1018.0 - 0.6
02/07:00pm 8.4 4.6 3.8 73 2.0 WSW 13 17 7 9 1017.6 1017.6 0.6
02/06:30pm 9.8 5.6 3.8 66 2.7 WSW 15 20 8 11 1017.2 - 0.6
02/06:00pm 10.2 5.7 4.1 66 2.7 WSW 17 24 9 13 1016.8 1016.8 0.6
02/05:30pm 11.7 5.9 2.5 53 4.0 SW 22 39 12 21 1016.2 - 0.6
02/05:00pm 11.8 6.5 2.8 54 4.0 SW 20 30 11 16 1015.6 1015.7 0.6
02/04:30pm 12.1 7.0 3.9 57 3.7 SW 20 28 11 15 1015.4 - 0.6
02/04:00pm 11.7 6.9 4.9 63 3.1 SW 19 24 10 13 1015.2 1015.3 0.4
02/03:30pm 9.8 5.9 5.4 74 2.0 S 15 22 8 12 1015.1 - 0.4
02/03:16pm 10.0 1.1 5.0 71 2.3 S 41 61 22 33 1015.2 - 0.4
02/03:09pm 10.1 1.9 4.7 69 2.4 SSW 37 61 20 33 1015.1 - 0.4
02/03:00pm 10.4 2.8 5.8 73 2.1 SW 35 50 19 27 1014.5 1014.6 0.4
02/02:59pm 10.4 2.8 5.6 72 2.2 SW 35 50 19 27 1014.5 - 0.4
02/02:57pm 11.5 4.1 4.9 64 3.0 SW 33 48 18 26 1014.3 - 0.2
02/02:30pm 15.3 10.5 5.5 52 4.7 WSW 20 30 11 16 1013.5 - 0.0
02/02:00pm 14.3 9.9 4.9 53 4.4 SSW 17 24 9 13 1013.4 1013.5 0.0
02/01:30pm 15.5 11.9 6.8 56 4.3 SSW 15 28 8 15 1013.3 - 0.0
02/01:00pm 14.4 10.4 5.0 53 4.4 SW 15 26 8 14 1013.4 1013.5 0.0
02/12:30pm 15.1 10.1 4.5 49 5.0 SSW 20 28 11 15 1013.5 - 0.0
02/12:00pm 14.7 9.8 5.0 52 4.6 SSW 20 35 11 19 1013.7 1013.8 0.0
02/11:30am 14.5 10.1 7.5 63 3.5 W 20 30 11 16 1014.0 - 0.0
02/11:00am 13.6 9.3 7.2 65 3.1 W 19 30 10 16 1014.1 1014.2 0.0
02/10:30am 13.0 9.1 7.0 67 2.9 W 17 24 9 13 1014.2 - 0.0
02/10:00am 12.5 9.0 7.2 70 2.6 W 15 20 8 11 1014.3 1014.4 0.0
02/09:30am 11.6 7.0 6.7 72 2.3 W 20 28 11 15 1014.2 - 0.0
02/09:00am 10.8 6.9 7.3 79 1.7 W 17 24 9 13 1014.2 1014.3 1.0
02/08:30am 10.6 6.9 7.8 83 1.4 W 17 22 9 12 1014.0 - 1.0
02/08:00am 9.5 6.7 7.1 85 1.1 WNW 11 15 6 8 1013.7 1013.8 1.0
02/07:30am 8.3 6.5 7.2 93 0.5 NW 6 7 3 4 1013.6 - 1.0
02/07:00am 7.3 5.3 6.1 92 0.5 NNE 6 7 3 4 1013.3 1013.4 1.0
02/06:30am 7.1 4.8 5.7 91 0.6 N 7 9 4 5 1012.9 - 1.0
02/06:00am 8.3 6.1 6.3 87 0.9 WSW 7 9 4 5 1012.5 1012.5 1.0
02/05:30am 8.2 4.9 6.3 88 0.9 WSW 13 19 7 10 1012.2 - 1.0
02/05:00am 8.1 5.1 6.2 88 0.9 WSW 11 17 6 9 1011.9 1011.9 1.0
02/04:30am 8.5 4.5 6.8 89 0.8 WSW 17 22 9 12 1011.6 - 1.0
02/04:00am 8.8 5.0 7.4 91 0.7 W 17 24 9 13 1011.5 1011.5 1.0
02/03:30am 9.0 4.7 7.8 92 0.6 W 20 28 11 15 1011.3 - 1.0
02/03:00am 9.3 5.2 7.9 91 0.7 WNW 19 24 10 13 1011.3 1011.3 1.0
02/02:46am 9.2 5.5 8.1 93 0.5 W 17 22 9 12 1011.1 - 1.0
02/02:30am 9.2 6.4 8.4 95 0.4 WNW 13 17 7 9 1011.1 - 1.0
02/02:00am 8.8 6.6 7.9 94 0.4 WNW 9 13 5 7 1010.8 1010.8 1.0
02/01:30am 9.3 7.2 8.4 94 0.4 NW 9 15 5 8 1011.3 - 1.0
02/01:00am 9.5 7.1 8.7 95 0.4 WNW 11 15 6 8 1011.5 1011.5 1.0
02/12:30am 9.7 6.9 8.6 93 0.5 WNW 13 19 7 10 1011.7 - 1.0
02/12:06am 9.8 7.4 8.7 93 0.5 WNW 11 15 6 8 1011.6 - 1.0
02/12:00am 9.7 6.9 8.6 93 0.5 WNW 13 17 7 9 1011.6 1011.6 1.0
 
Date/Time
EST
Temp
°C
App
Temp
°C
Dew
Point
Rel
Hum
%
Delta-T
°C
Wind Press
QNH
hPa
Press
MSL
hPa
Rain
since 9 am
mm
Dir
 
Spd
km/h
Gust
km/h
Spd
kts
Gust
kts
01/11:38pm 9.9 6.4 8.7 92 0.6 WNW 17 22 9 12 1011.6 - 1.0
01/11:30pm 9.9 6.4 8.7 92 0.6 WNW 17 20 9 11 1011.6 - 1.0
01/11:00pm 10.0 7.3 9.1 94 0.4 WNW 13 19 7 10 1011.6 1011.6 1.0
01/10:32pm 10.1 8.3 9.5 96 0.3 WNW 9 11 5 6 1011.5 - 1.0
01/10:30pm 10.1 8.3 9.5 96 0.3 WNW 9 13 5 7 1011.5 - 1.0
01/10:00pm 10.0 7.3 9.1 94 0.4 W 13 15 7 8 1011.5 1011.5 1.0
01/09:30pm 10.1 7.7 8.7 91 0.7 WNW 11 17 6 9 1011.8 - 1.0
01/09:00pm 10.6 8.5 9.7 94 0.5 WNW 11 15 6 8 1012.0 1012.0 0.8
01/08:30pm 10.9 9.1 9.5 91 0.7 NNW 9 11 5 6 1011.7 - 0.2
01/08:00pm 11.0 9.2 9.3 89 0.9 NW 9 15 5 8 1011.6 1011.6 0.0
01/07:30pm 11.3 8.8 9.6 89 0.9 W 13 19 7 10 1011.2 - 0.0
01/07:00pm 11.6 8.3 9.5 87 1.1 W 17 20 9 11 1011.1 1011.1 0.0
01/06:30pm 12.0 9.4 9.4 84 1.3 WNW 13 19 7 10 1010.8 - 0.0
01/06:00pm 12.9 10.5 8.6 75 2.2 WNW 11 15 6 8 1010.5 1010.5 0.0
01/05:30pm 13.7 10.1 8.3 70 2.7 W 17 28 9 15 1010.2 - 0.0
01/05:00pm 14.6 9.4 7.2 61 3.7 W 24 39 13 21 1009.9 1009.9 0.0
01/04:30pm 16.6 11.9 5.9 49 5.2 W 20 30 11 16 1009.0 - 0.0
01/04:00pm 17.6 13.0 6.5 48 5.5 W 20 30 11 16 1008.8 1008.9 0.0
01/03:30pm 18.4 13.7 5.9 44 6.2 W 20 28 11 15 1008.6 - 0.0
01/03:00pm 19.4 15.2 5.5 40 6.9 NW 17 24 9 13 1008.7 1008.8 0.0
01/02:30pm 20.2 15.8 6.5 41 6.9 NNW 19 28 10 15 1009.1 - 0.0
01/02:00pm 20.0 16.6 9.0 49 5.8 N 17 20 9 11 1009.4 1009.4 0.0
01/01:30pm 18.9 14.8 8.0 49 5.6 N 19 26 10 14 1009.8 - 0.0
01/01:00pm 18.9 15.1 7.4 47 5.9 N 17 24 9 13 1010.4 1010.4 0.0
01/12:30pm 18.1 14.0 7.8 51 5.3 N 19 26 10 14 1011.1 - 0.0
01/12:00pm 18.4 14.1 7.2 48 5.7 N 19 24 10 13 1011.6 1011.6 0.0
01/11:30am 18.9 15.6 8.0 49 5.6 NNE 15 24 8 13 1012.2 - 0.0
01/11:00am 17.5 14.1 7.8 53 5.0 NNE 15 22 8 12 1012.7 1012.8 0.0
01/10:30am 17.3 12.9 7.4 52 5.0 NNE 20 26 11 14 1013.2 - 0.0
01/10:00am 14.3 13.1 9.7 74 2.4 ESE 6 9 3 5 1013.8 1013.9 0.0
01/09:30am 12.8 11.4 8.9 77 2.0 ESE 6 11 3 6 1014.3 - 0.0
01/09:00am 11.5 9.5 8.7 83 1.4 E 9 11 5 6 1014.4 1014.7 0.0
01/08:30am 9.2 7.3 6.8 85 1.1 SE 6 7 3 4 1014.9 - 0.0
01/08:00am 8.6 7.8 8.3 98 0.1 WSW 2 6 1 3 1014.9 1015.2 0.0
01/07:30am 5.3 3.8 5.0 98 0.1 N 2 6 1 3 1014.9 - 0.0
01/07:00am 4.9 3.7 4.6 98 0.1 CALM 0 0 0 0 1014.8 1015.1 0.0
01/06:30am 5.0 3.1 4.7 98 0.1 N 4 6 2 3 1015.1 - 0.0
01/06:00am 5.1 3.9 4.7 97 0.2 CALM 0 0 0 0 1015.3 1015.6 0.0
01/05:30am 4.6 3.2 3.7 94 0.4 CALM 0 0 0 0 1015.2 - 0.0
01/05:00am 5.5 4.4 4.9 96 0.3 CALM 0 0 0 0 1015.3 1015.6 0.0
01/04:30am 5.3 4.1 4.6 95 0.3 CALM 0 0 0 0 1015.1 - 0.0
01/04:00am 5.5 4.4 4.9 96 0.3 CALM 0 7 0 4 1015.1 1015.4 0.0
01/03:30am 5.0 2.9 4.1 94 0.4 N 4 7 2 4 1015.4 - 0.0
01/03:00am 5.5 3.2 4.8 95 0.3 NNE 6 7 3 4 1015.6 1015.9 0.0
01/02:30am 5.6 3.3 4.6 93 0.4 NE 6 7 3 4 1015.8 - 0.0
01/02:00am 6.3 4.2 5.6 95 0.3 NNW 6 7 3 4 1015.9 1016.1 0.0
01/01:30am 5.9 4.8 5.3 96 0.3 CALM 0 0 0 0 1015.8 - 0.0
01/01:00am 6.4 4.3 5.7 95 0.3 SSE 6 7 3 4 1015.9 1016.1 0.0
01/12:30am 6.5 5.0 5.0 90 0.7 E 2 6 1 3 1016.0 - 0.0
01/12:00am 6.9 5.9 5.7 92 0.5 CALM 0 0 0 0 1016.1 1016.3 0.0
 
Date/Time
EST
Temp
°C
App
Temp
°C
Dew
Point
Rel
Hum
%
Delta-T
°C
Wind Press
QNH
hPa
Press
MSL
hPa
Rain
since 9 am
mm
Dir
 
Spd
km/h
Gust
km/h
Spd
kts
Gust
kts
31/11:30pm 7.4 5.3 6.0 91 0.6 E 6 7 3 4 1016.4 - 0.0
31/11:00pm 7.1 5.3 5.3 88 0.8 ESE 4 7 2 4 1016.8 1017.0 0.0
31/10:30pm 7.7 6.7 5.8 88 0.9 CALM 0 0 0 0 1016.8 - 0.0
31/10:00pm 8.2 6.1 5.8 85 1.1 E 6 7 3 4 1017.1 1017.3 0.0
31/09:43pm 9.0 7.0 7.0 87 0.9 E 7 9 4 5 1017.2 - 0.0
31/09:30pm 8.8 6.8 7.1 89 0.8 ENE 7 9 4 5 1017.3 - 0.0
31/09:00pm 8.8 7.3 6.8 87 0.9 E 4 7 2 4 1017.6 1017.8 0.0
31/08:30pm 9.5 8.8 7.1 85 1.1 CALM 0 0 0 0 1017.6 - 0.0
31/08:00pm 10.8 9.4 7.1 78 1.8 ENE 4 7 2 4 1017.6 1017.8 0.0
31/07:30pm 11.9 11.3 7.4 74 2.2 CALM 0 7 0 4 1017.6 - 0.0
31/07:00pm 12.7 12.1 7.4 70 2.6 CALM 0 0 0 0 1017.6 1017.8 0.0
31/06:30pm 13.8 13.2 7.6 66 3.1 CALM 0 0 0 0 1017.4 - 0.0
31/06:00pm 15.2 14.7 7.7 61 3.8 CALM 0 0 0 0 1017.4 1017.6 0.0
31/05:30pm 16.7 15.3 8.7 59 4.1 SSE 6 9 3 5 1017.2 - 0.0
31/05:00pm 18.3 16.7 8.8 54 5.0 W 7 15 4 8 1017.2 1017.4 0.0

Other Formats:

Comma delimited format used in spreadsheet applications
http://www.bom.gov.au/fwo/IDN60801/IDN60801.95896.axf

JavaScript Object Notation format (JSON) in row-major order
http://www.bom.gov.au/fwo/IDN60801/IDN60801.95896.json